Time;durP1;ratioP1;P1;durP2;ratioP2;P2;SDS_P1;SDS_P2;PMS_P1;PMS_P2;Temp;Humidity;BMP_temperature;BMP_pressure;BME280_temperature;BME280_humidity;BME280_pressure;Samples;Min_cycle;Max_cycle;Signal;HPM_P1;HPM_P2
2021/01/15 00:01:00;;;;;;;10.93;8.13;;;2.00;99.90;;;;;;5032754;28;21035;-45
2021/01/15 00:03:26;;;;;;;11.90;8.20;;;2.00;99.90;;;;;;5033445;28;20200;-46
2021/01/15 00:05:52;;;;;;;14.30;7.73;;;2.00;99.90;;;;;;5033232;28;20549;-45
2021/01/15 00:08:17;;;;;;;11.97;8.33;;;2.00;99.90;;;;;;5031391;28;20667;-48
2021/01/15 00:10:43;;;;;;;13.83;8.50;;;2.00;99.90;;;;;;5032208;28;20192;-48
2021/01/15 00:13:08;;;;;;;10.87;7.47;;;1.90;99.90;;;;;;5032554;28;20187;-48
2021/01/15 00:15:34;;;;;;;10.47;7.57;;;1.60;99.90;;;;;;5033025;28;20179;-47
2021/01/15 00:17:59;;;;;;;9.60;7.20;;;1.50;99.90;;;;;;5033000;28;20277;-47
2021/01/15 00:20:25;;;;;;;12.90;8.43;;;1.40;99.90;;;;;;5034589;28;20171;-50
2021/01/15 00:22:51;;;;;;;10.10;7.30;;;1.50;99.90;;;;;;5038247;28;20180;-46
2021/01/15 00:25:16;;;;;;;12.37;8.10;;;1.50;99.90;;;;;;5035646;28;20181;-48
2021/01/15 00:27:42;;;;;;;12.53;7.73;;;1.60;99.90;;;;;;5036709;28;20266;-52
2021/01/15 00:30:09;;;;;;;12.27;8.20;;;1.50;99.90;;;;;;5037724;28;20496;-48
2021/01/15 00:32:37;;;;;;;10.90;7.83;;;1.50;99.90;;;;;;5035091;28;20257;-47
2021/01/15 00:35:07;;;;;;;12.23;8.20;;;1.40;99.90;;;;;;5036946;28;20418;-46
2021/01/15 00:37:33;;;;;;;11.87;8.40;;;1.40;99.90;;;;;;5037243;28;20453;-51
2021/01/15 00:39:59;;;;;;;13.30;8.37;;;1.20;99.90;;;;;;5035157;28;20438;-48
2021/01/15 00:42:25;;;;;;;13.60;9.83;;;1.10;99.90;;;;;;5037265;28;20771;-50
2021/01/15 00:44:55;;;;;;;13.37;9.40;;;0.80;99.90;;;;;;5037238;28;20266;-47
2021/01/15 00:47:21;;;;;;;12.17;7.90;;;0.50;99.90;;;;;;5037346;28;20230;-47
2021/01/15 00:49:47;;;;;;;12.87;8.60;;;0.50;99.90;;;;;;5037395;28;20442;-46
2021/01/15 00:52:16;;;;;;;14.00;8.63;;;0.50;99.90;;;;;;5035077;28;20476;-47
2021/01/15 00:54:41;;;;;;;12.53;8.53;;;0.30;99.90;;;;;;5036556;28;20195;-47
2021/01/15 00:57:07;;;;;;;10.53;8.07;;;0.20;99.90;;;;;;5037061;28;20402;-50
2021/01/15 00:59:32;;;;;;;11.30;8.47;;;0.10;99.90;;;;;;5034491;28;20227;-50
2021/01/15 01:01:58;;;;;;;10.80;8.17;;;0.20;99.90;;;;;;5037052;28;20179;-52
2021/01/15 01:04:23;;;;;;;11.27;8.00;;;0.30;99.90;;;;;;5036457;28;20235;-46
2021/01/15 01:06:49;;;;;;;11.77;8.70;;;0.30;99.90;;;;;;5036867;28;20234;-47
2021/01/15 01:09:14;;;;;;;12.83;8.20;;;0.20;99.90;;;;;;5036808;28;20203;-46
2021/01/15 01:11:40;;;;;;;9.90;7.73;;;-0.10;99.90;;;;;;5034982;28;20207;-46
2021/01/15 01:14:05;;;;;;;11.40;8.00;;;-0.10;99.90;;;;;;5036706;28;20230;-49
2021/01/15 01:16:32;;;;;;;11.03;8.40;;;0.00;99.90;;;;;;5036526;28;20238;-48
2021/01/15 01:18:57;;;;;;;12.33;8.43;;;0.00;99.90;;;;;;5036673;28;20196;-47
2021/01/15 01:21:24;;;;;;;9.90;7.67;;;0.00;99.90;;;;;;5037214;28;20463;-46
2021/01/15 01:23:50;;;;;;;12.57;8.20;;;0.00;99.90;;;;;;5033371;28;20218;-46
2021/01/15 01:26:16;;;;;;;14.70;9.17;;;-0.10;99.90;;;;;;5035733;28;20461;-48
2021/01/15 01:28:42;;;;;;;11.70;9.30;;;0.00;99.90;;;;;;5016744;28;20427;-48
2021/01/15 01:31:18;;;;;;;11.37;9.03;;;0.00;99.90;;;;;;5017708;28;20415;-47
2021/01/15 01:33:45;;;;;;;12.20;8.93;;;0.10;99.90;;;;;;5016333;28;20399;-51
2021/01/15 01:36:12;;;;;;;14.83;8.87;;;0.10;99.90;;;;;;5016915;28;20415;-52
2021/01/15 01:38:38;;;;;;;12.50;8.63;;;0.10;99.90;;;;;;5016466;28;20467;-48
2021/01/15 01:41:04;;;;;;;11.97;8.33;;;0.00;99.90;;;;;;5016623;28;20418;-47
2021/01/15 01:43:30;;;;;;;12.00;9.43;;;-0.10;99.90;;;;;;5033042;28;20446;-47
2021/01/15 01:46:00;;;;;;;11.30;9.13;;;-0.20;99.90;;;;;;5036283;28;20207;-47
2021/01/15 01:48:26;;;;;;;13.13;9.37;;;-0.20;99.90;;;;;;5018279;28;20204;-48
2021/01/15 01:50:53;;;;;;;13.13;10.07;;;-0.30;99.90;;;;;;5036893;28;20882;-48
2021/01/15 01:53:21;;;;;;;15.00;10.27;;;-0.30;99.90;;;;;;5036212;28;20418;-51
2021/01/15 01:55:47;;;;;;;16.27;10.67;;;-0.30;99.90;;;;;;5036418;28;20437;-46
2021/01/15 01:58:16;;;;;;;16.43;11.37;;;-0.30;99.90;;;;;;5036227;28;20435;-47
2021/01/15 02:00:43;;;;;;;15.40;10.20;;;-0.30;99.90;;;;;;5031541;28;20207;-50
2021/01/15 02:03:09;;;;;;;12.57;10.43;;;-0.30;99.90;;;;;;5035401;28;20449;-47
2021/01/15 02:05:34;;;;;;;12.93;10.10;;;-0.40;99.90;;;;;;5035624;28;20457;-49
2021/01/15 02:08:00;;;;;;;13.83;9.73;;;-0.40;99.90;;;;;;5035764;28;20204;-48
2021/01/15 02:10:51;;;;;;;15.17;10.40;;;-0.40;99.90;;;;;;5035906;28;20511;-47
2021/01/15 02:13:51;;;;;;;17.07;10.97;;;-0.40;99.90;;;;;;5035899;28;20180;-47
2021/01/15 02:16:23;;;;;;;15.70;10.73;;;-0.50;99.90;;;;;;5036471;28;20426;-46
2021/01/15 02:19:17;;;;;;;16.87;12.07;;;-0.50;99.90;;;;;;5035808;28;20435;-47
2021/01/15 02:22:20;;;;;;;16.07;11.53;;;-0.50;99.90;;;;;;5036363;28;20418;-48
2021/01/15 02:24:58;;;;;;;18.23;13.33;;;-0.60;99.90;;;;;;5035663;28;20410;-47
2021/01/15 02:27:46;;;;;;;17.43;12.83;;;-0.60;99.90;;;;;;5035154;28;20457;-47
2021/01/15 02:30:39;;;;;;;15.53;11.87;;;-0.60;99.90;;;;;;5035327;28;20411;-46
2021/01/15 02:33:18;;;;;;;14.77;12.27;;;-0.60;99.90;;;;;;5036117;28;20488;-45
2021/01/15 02:36:11;;;;;;;15.27;11.43;;;-0.60;99.90;;;;;;5035237;28;20437;-51
2021/01/15 02:38:45;;;;;;;14.63;11.77;;;-0.60;99.90;;;;;;5036332;28;20438;-46
2021/01/15 02:41:22;;;;;;;16.23;10.97;;;-0.60;99.90;;;;;;5035471;28;20411;-51
2021/01/15 02:43:49;;;;;;;15.07;11.90;;;-0.60;99.90;;;;;;5035435;28;20747;-46
2021/01/15 02:46:19;;;;;;;15.30;11.60;;;-0.60;99.90;;;;;;5035332;28;20446;-46
2021/01/15 02:48:47;;;;;;;15.30;12.67;;;-0.50;99.90;;;;;;5035724;28;20427;-47
2021/01/15 02:51:14;;;;;;;17.43;12.40;;;-0.50;99.90;;;;;;5035747;28;20410;-47
2021/01/15 02:53:40;;;;;;;17.17;12.70;;;-0.40;99.90;;;;;;5035651;28;20887;-46
2021/01/15 02:56:06;;;;;;;17.33;13.57;;;-0.40;99.90;;;;;;5035194;28;20469;-48
2021/01/15 02:58:31;;;;;;;18.00;12.60;;;-0.40;99.90;;;;;;5035110;28;20222;-52
2021/01/15 03:00:57;;;;;;;19.00;13.43;;;-0.30;99.90;;;;;;5035142;28;20176;-50
2021/01/15 03:03:34;;;;;;;18.73;12.27;;;-0.30;99.90;;;;;;5035743;28;20195;-45
2021/01/15 03:06:22;;;;;;;19.73;14.50;;;-0.30;99.90;;;;;;5035181;28;20194;-48
2021/01/15 03:08:48;;;;;;;17.10;13.33;;;-0.20;99.90;;;;;;5034430;28;20426;-47
2021/01/15 03:11:15;;;;;;;18.13;13.30;;;-0.30;99.90;;;;;;5035260;28;20410;-47
2021/01/15 03:13:42;;;;;;;18.33;12.30;;;-0.30;99.90;;;;;;5017163;28;20976;-49
2021/01/15 03:16:09;;;;;;;15.00;11.90;;;-0.40;99.90;;;;;;5034652;28;20423;-48
2021/01/15 03:18:36;;;;;;;15.83;11.30;;;-0.40;99.90;;;;;;5034918;28;20779;-45
2021/01/15 03:21:02;;;;;;;15.20;11.53;;;-0.50;99.90;;;;;;5034449;28;20449;-45
2021/01/15 03:23:28;;;;;;;14.37;10.70;;;-0.50;99.90;;;;;;5034081;28;20414;-45
2021/01/15 03:25:55;;;;;;;17.50;11.70;;;-0.60;99.90;;;;;;5034318;28;20874;-47
2021/01/15 03:28:21;;;;;;;16.47;11.73;;;-0.60;99.90;;;;;;5032888;28;20453;-48
2021/01/15 03:30:46;;;;;;;14.77;11.17;;;-0.60;99.90;;;;;;5034258;28;20414;-48
2021/01/15 03:33:12;;;;;;;15.33;10.97;;;-0.70;99.90;;;;;;5034145;28;20180;-50
2021/01/15 03:35:38;;;;;;;15.43;11.53;;;-0.80;99.90;;;;;;5034676;28;20171;-47
2021/01/15 03:38:03;;;;;;;16.40;11.30;;;-0.70;99.90;;;;;;5032612;28;20568;-47
2021/01/15 03:40:31;;;;;;;16.53;11.23;;;-0.70;99.90;;;;;;5033043;28;20190;-49
2021/01/15 03:42:58;;;;;;;16.57;10.73;;;-0.70;99.90;;;;;;5034212;28;20710;-47
2021/01/15 03:45:24;;;;;;;15.90;11.27;;;-0.70;99.90;;;;;;5033908;28;20417;-47
2021/01/15 03:47:50;;;;;;;15.37;11.30;;;-0.80;99.90;;;;;;5033550;28;20414;-48
2021/01/15 03:50:16;;;;;;;15.63;11.97;;;-0.80;99.90;;;;;;5031207;28;20529;-52
2021/01/15 03:52:42;;;;;;;14.57;10.67;;;-0.80;99.90;;;;;;5033818;28;20184;-46
2021/01/15 03:55:08;;;;;;;14.63;11.17;;;-0.80;99.90;;;;;;5033443;28;20406;-47
2021/01/15 03:57:34;;;;;;;18.37;11.33;;;-0.80;99.90;;;;;;5034177;28;20177;-47
2021/01/15 04:00:07;;;;;;;14.70;10.67;;;-0.90;99.90;;;;;;5031764;28;20462;-47
2021/01/15 04:02:33;;;;;;;15.97;10.80;;;-0.90;99.90;;;;;;5024771;28;20434;-48
2021/01/15 04:04:59;;;;;;;15.90;11.23;;;-0.90;99.90;;;;;;5033527;28;20421;-51
2021/01/15 04:07:25;;;;;;;15.47;10.90;;;-0.90;99.90;;;;;;5033685;28;20291;-52
2021/01/15 04:09:50;;;;;;;12.87;10.33;;;-0.90;99.90;;;;;;5031285;28;20215;-46
2021/01/15 04:12:16;;;;;;;14.83;10.90;;;-1.00;99.90;;;;;;5033162;28;20430;-46
2021/01/15 04:14:43;;;;;;;14.40;10.23;;;-1.00;99.90;;;;;;5034157;28;20184;-47
2021/01/15 04:17:09;;;;;;;14.60;10.43;;;-1.00;99.90;;;;;;5033271;28;20180;-48
2021/01/15 04:19:34;;;;;;;16.00;9.83;;;-1.00;99.90;;;;;;5027703;28;20466;-47
2021/01/15 04:22:00;;;;;;;13.90;10.03;;;-0.90;99.90;;;;;;5014852;28;20423;-50
2021/01/15 04:24:26;;;;;;;14.87;10.30;;;-0.90;99.90;;;;;;5014127;28;20735;-48
2021/01/15 04:26:56;;;;;;;13.33;10.17;;;-0.90;99.90;;;;;;5013584;28;20204;-46
2021/01/15 04:29:22;;;;;;;16.67;11.40;;;-0.80;99.90;;;;;;5014290;28;20196;-45
2021/01/15 04:31:48;;;;;;;15.53;11.23;;;-0.70;99.90;;;;;;5014434;28;20406;-47
2021/01/15 04:34:14;;;;;;;15.83;10.70;;;-0.80;99.90;;;;;;5013963;28;20424;-46
2021/01/15 04:36:40;;;;;;;13.90;10.40;;;-0.90;99.90;;;;;;5014426;28;20431;-45
2021/01/15 04:39:07;;;;;;;14.07;10.33;;;-1.00;99.90;;;;;;5014938;28;20431;-51
2021/01/15 04:41:33;;;;;;;15.00;10.33;;;-1.10;99.90;;;;;;5014480;28;20263;-51
2021/01/15 04:43:59;;;;;;;14.43;10.20;;;-1.10;99.90;;;;;;5013981;28;20892;-45
2021/01/15 04:46:26;;;;;;;14.37;10.30;;;-0.90;99.90;;;;;;5013669;28;20545;-48
2021/01/15 04:48:53;;;;;;;13.77;9.93;;;-0.90;99.90;;;;;;5014379;28;20431;-47
2021/01/15 04:51:24;;;;;;;13.33;10.50;;;-0.90;99.90;;;;;;5014408;28;20408;-51
2021/01/15 04:53:56;;;;;;;13.80;10.70;;;-0.80;99.90;;;;;;5014095;28;20438;-46
2021/01/15 04:56:36;;;;;;;14.10;10.40;;;-0.80;99.90;;;;;;5013554;28;20407;-46
2021/01/15 04:59:05;;;;;;;12.00;9.03;;;-0.70;99.90;;;;;;5013950;28;20439;-51
2021/01/15 05:01:42;;;;;;;12.93;9.37;;;-0.70;99.90;;;;;;5014053;28;20415;-48
2021/01/15 05:04:09;;;;;;;13.07;9.70;;;-0.60;99.90;;;;;;5014023;28;20998;-46
2021/01/15 05:06:49;;;;;;;15.23;11.53;;;-0.60;99.90;;;;;;5013281;28;20458;-46
2021/01/15 05:09:25;;;;;;;14.60;10.17;;;-0.60;99.90;;;;;;5017833;28;20427;-45
2021/01/15 05:11:52;;;;;;;13.73;9.30;;;-0.60;99.90;;;;;;5018157;28;20415;-47
2021/01/15 05:14:19;;;;;;;11.83;8.63;;;-0.60;99.90;;;;;;5017909;28;20458;-49
2021/01/15 05:16:47;;;;;;;13.73;10.50;;;-0.60;99.90;;;;;;5016974;28;20466;-45
2021/01/15 05:19:14;;;;;;;12.03;8.97;;;-0.70;99.90;;;;;;5016659;28;20454;-46
2021/01/15 05:21:41;;;;;;;12.73;8.50;;;-0.60;99.90;;;;;;5017312;28;20509;-47
2021/01/15 05:24:08;;;;;;;13.13;8.57;;;-0.70;99.90;;;;;;5017446;28;20426;-46
2021/01/15 05:26:34;;;;;;;10.40;8.17;;;-0.60;99.90;;;;;;5016967;28;20466;-45
2021/01/15 05:29:01;;;;;;;10.03;8.17;;;-0.60;99.90;;;;;;5019715;28;20500;-47
2021/01/15 05:31:27;;;;;;;10.63;8.70;;;-0.50;99.90;;;;;;5036547;28;20418;-50
2021/01/15 05:34:05;;;;;;;10.67;8.20;;;-0.50;99.90;;;;;;5036896;28;20418;-48
2021/01/15 05:36:31;;;;;;;10.60;8.10;;;-0.50;99.90;;;;;;5036974;28;20176;-47
2021/01/15 05:39:29;;;;;;;11.40;8.50;;;-0.50;99.90;;;;;;5036548;28;20448;-47
2021/01/15 05:42:00;;;;;;;12.27;8.27;;;-0.40;99.90;;;;;;5013145;28;20506;-49
2021/01/15 05:44:32;;;;;;;12.97;9.23;;;-0.40;99.90;;;;;;5014300;28;20408;-48
2021/01/15 05:47:00;;;;;;;11.77;8.80;;;-0.40;99.90;;;;;;5013633;28;20462;-50
2021/01/15 05:49:25;;;;;;;11.37;8.27;;;-0.40;99.90;;;;;;5013887;28;20471;-49
2021/01/15 05:51:51;;;;;;;10.20;8.10;;;-0.40;99.90;;;;;;5013922;28;20454;-48
2021/01/15 05:54:29;;;;;;;9.37;7.00;;;-0.40;99.90;;;;;;5013800;28;20169;-46
2021/01/15 05:56:56;;;;;;;10.73;8.27;;;-0.30;99.90;;;;;;5014373;28;20177;-46
2021/01/15 05:59:21;;;;;;;14.47;8.50;;;-0.30;99.90;;;;;;5015444;28;20439;-48
2021/01/15 06:01:51;;;;;;;8.70;7.23;;;-0.20;99.90;;;;;;5013488;28;20411;-47
2021/01/15 06:04:37;;;;;;;8.90;7.30;;;-0.20;99.90;;;;;;5010533;28;20208;-47
2021/01/15 06:07:08;;;;;;;8.63;6.53;;;-0.10;99.90;;;;;;5007442;28;20463;-46
2021/01/15 06:09:35;;;;;;;9.57;6.83;;;-0.10;99.90;;;;;;5011680;28;20439;-46
2021/01/15 06:12:09;;;;;;;10.23;7.57;;;-0.10;99.90;;;;;;5011689;28;20507;-45
2021/01/15 06:14:48;;;;;;;9.27;7.10;;;-0.10;99.90;;;;;;5013871;28;20499;-47
2021/01/15 06:17:15;;;;;;;12.87;7.57;;;0.00;99.90;;;;;;5013821;28;20562;-46
2021/01/15 06:19:47;;;;;;;9.73;7.47;;;0.00;99.90;;;;;;5032232;28;20482;-47
2021/01/15 06:22:26;;;;;;;10.60;7.97;;;0.00;99.90;;;;;;5033083;28;20419;-54
2021/01/15 06:25:26;;;;;;;12.40;8.53;;;-0.10;99.90;;;;;;5033319;28;20403;-47
2021/01/15 06:27:56;;;;;;;10.27;8.13;;;-0.10;99.90;;;;;;5032231;28;20497;-47
2021/01/15 06:30:24;;;;;;;9.57;7.70;;;-0.10;99.90;;;;;;5035165;28;20411;-48
2021/01/15 06:32:50;;;;;;;9.97;7.40;;;-0.10;99.90;;;;;;5035679;28;20421;-46
2021/01/15 06:35:30;;;;;;;9.33;7.57;;;0.00;99.90;;;;;;5036508;28;20881;-46
2021/01/15 06:38:04;;;;;;;10.00;6.93;;;0.00;99.90;;;;;;5034545;28;20402;-51
2021/01/15 06:40:34;;;;;;;11.40;7.83;;;0.00;99.90;;;;;;5035524;28;20509;-52
2021/01/15 06:43:03;;;;;;;9.63;7.27;;;0.00;99.90;;;;;;5034912;28;20910;-46
2021/01/15 06:45:40;;;;;;;10.20;7.30;;;0.10;99.90;;;;;;5035853;28;20406;-46
2021/01/15 06:48:15;;;;;;;10.80;7.53;;;0.10;99.90;;;;;;5024342;28;20546;-47
2021/01/15 06:50:43;;;;;;;11.67;9.37;;;0.00;99.90;;;;;;5020721;28;20427;-47
2021/01/15 06:53:29;;;;;;;11.27;7.87;;;0.00;99.90;;;;;;5014747;28;20449;-48
2021/01/15 06:55:58;;;;;;;9.20;7.30;;;0.00;99.90;;;;;;5027290;28;20512;-53
2021/01/15 06:58:28;;;;;;;11.97;8.53;;;0.00;99.90;;;;;;5018550;28;20476;-46
2021/01/15 07:01:33;;;;;;;10.97;8.87;;;0.00;99.90;;;;;;5027381;28;20426;-48
2021/01/15 07:04:28;;;;;;;9.17;7.80;;;0.00;99.90;;;;;;5031312;28;20932;-47
2021/01/15 07:07:20;;;;;;;12.77;8.80;;;0.00;99.90;;;;;;5030343;28;20596;-46
2021/01/15 07:09:47;;;;;;;14.87;10.43;;;-0.10;99.90;;;;;;5025586;28;20447;-46
2021/01/15 07:12:18;;;;;;;12.93;9.47;;;-0.10;99.90;;;;;;5034452;28;20421;-47
2021/01/15 07:14:56;;;;;;;15.13;10.40;;;-0.10;99.90;;;;;;5032813;28;20422;-47
2021/01/15 07:17:28;;;;;;;14.97;9.90;;;-0.10;99.90;;;;;;5034841;28;20782;-46
2021/01/15 07:20:06;;;;;;;13.10;9.83;;;-0.20;99.90;;;;;;5024740;28;20458;-49
2021/01/15 07:22:42;;;;;;;14.67;9.87;;;-0.20;99.90;;;;;;5033483;28;20556;-45
2021/01/15 07:25:09;;;;;;;12.73;9.43;;;-0.30;99.90;;;;;;5033156;28;20461;-52
2021/01/15 07:27:35;;;;;;;14.20;10.07;;;-0.30;99.90;;;;;;5031039;28;20458;-46
2021/01/15 07:30:03;;;;;;;12.90;9.97;;;-0.30;99.90;;;;;;5033041;28;20438;-45
2021/01/15 07:32:33;;;;;;;14.50;11.17;;;-0.30;99.90;;;;;;5032469;28;20203;-45
2021/01/15 07:35:00;;;;;;;14.27;10.13;;;-0.30;99.90;;;;;;5033348;28;20467;-48
2021/01/15 07:37:28;;;;;;;15.17;11.63;;;-0.40;99.90;;;;;;5025511;28;20534;-50
2021/01/15 07:40:10;;;;;;;13.53;10.40;;;-0.40;99.90;;;;;;5028895;28;20473;-45
2021/01/15 07:42:52;;;;;;;12.80;10.03;;;-0.40;99.90;;;;;;5031421;28;20423;-48
2021/01/15 07:45:24;;;;;;;14.47;10.63;;;-0.50;99.90;;;;;;5030910;28;20966;-48
2021/01/15 07:47:51;;;;;;;14.60;10.63;;;-0.40;99.90;;;;;;5030645;28;20435;-49
2021/01/15 07:50:30;;;;;;;15.50;10.70;;;-0.40;99.90;;;;;;5028935;28;20423;-50
2021/01/15 07:53:16;;;;;;;14.47;11.03;;;-0.30;99.90;;;;;;5026880;28;20475;-49
2021/01/15 07:55:48;;;;;;;15.70;11.07;;;-0.30;99.90;;;;;;5030362;28;20476;-47
2021/01/15 07:58:18;;;;;;;16.13;11.07;;;-0.40;99.90;;;;;;5029640;28;20442;-46
2021/01/15 08:00:44;;;;;;;15.57;11.67;;;-0.40;99.90;;;;;;5031262;28;20427;-51
2021/01/15 08:03:11;;;;;;;14.57;10.87;;;-0.20;99.90;;;;;;5033812;28;20430;-51
2021/01/15 08:05:37;;;;;;;14.57;10.70;;;-0.30;99.90;;;;;;5030972;28;20462;-46
2021/01/15 08:08:14;;;;;;;15.00;10.83;;;-0.40;99.90;;;;;;5033338;28;20439;-46
2021/01/15 08:10:44;;;;;;;14.23;10.77;;;-0.40;99.90;;;;;;5030399;28;20172;-47
2021/01/15 08:13:27;;;;;;;14.97;11.13;;;-0.40;99.90;;;;;;5026802;28;20429;-51
2021/01/15 08:15:55;;;;;;;14.83;11.23;;;-0.20;99.90;;;;;;5031022;28;20418;-50
2021/01/15 08:18:21;;;;;;;14.37;11.33;;;0.10;99.90;;;;;;5032697;28;20442;-45
2021/01/15 08:20:49;;;;;;;13.57;10.90;;;0.20;99.90;;;;;;5032784;28;20409;-48
2021/01/15 08:23:21;;;;;;;16.00;11.33;;;0.30;99.90;;;;;;5032962;28;20493;-52
2021/01/15 08:25:48;;;;;;;16.87;11.47;;;0.50;99.90;;;;;;5033301;28;20445;-49
2021/01/15 08:28:13;;;;;;;14.40;11.27;;;0.40;99.90;;;;;;5028257;28;20462;-47
2021/01/15 08:30:39;;;;;;;16.47;12.00;;;0.50;99.90;;;;;;5032162;28;20417;-44
2021/01/15 08:33:05;;;;;;;13.93;10.73;;;0.40;99.90;;;;;;5032219;28;20172;-47
2021/01/15 08:35:31;;;;;;;13.33;10.53;;;0.50;99.90;;;;;;5032807;28;20175;-45
2021/01/15 08:37:57;;;;;;;13.97;11.07;;;0.70;99.90;;;;;;5031955;28;20437;-46
2021/01/15 08:40:28;;;;;;;15.43;10.87;;;0.70;99.90;;;;;;5032068;28;20168;-46
2021/01/15 08:42:56;;;;;;;14.60;11.33;;;0.70;99.90;;;;;;5034763;28;20410;-47
2021/01/15 08:45:24;;;;;;;14.27;11.03;;;0.70;99.90;;;;;;5034894;28;20476;-44
2021/01/15 08:47:49;;;;;;;15.03;12.20;;;0.80;99.90;;;;;;5034194;28;20434;-48
2021/01/15 08:50:17;;;;;;;19.03;12.50;;;1.00;99.90;;;;;;5033893;28;20942;-45
2021/01/15 08:52:44;;;;;;;15.57;11.80;;;1.20;99.90;;;;;;5035274;28;20509;-46
2021/01/15 08:55:13;;;;;;;16.57;12.20;;;1.50;99.90;;;;;;5036225;28;20430;-44
2021/01/15 08:57:39;;;;;;;18.37;11.20;;;1.70;99.90;;;;;;5026290;28;20910;-43
2021/01/15 09:00:10;;;;;;;13.83;12.17;;;1.90;99.90;;;;;;5021793;28;20442;-46
2021/01/15 09:02:39;;;;;;;13.73;10.83;;;2.30;99.90;;;;;;5033633;28;20192;-45
2021/01/15 09:05:15;;;;;;;13.53;11.43;;;3.40;99.90;;;;;;5036568;28;20168;-49
2021/01/15 09:07:46;;;;;;;13.57;10.57;;;4.20;99.90;;;;;;5034713;28;20182;-48
2021/01/15 09:10:13;;;;;;;14.60;10.70;;;5.60;99.90;;;;;;5036369;28;20167;-50
2021/01/15 09:12:42;;;;;;;13.33;10.83;;;6.50;99.90;;;;;;5036074;28;20176;-44
2021/01/15 09:15:27;;;;;;;14.17;10.43;;;7.00;99.90;;;;;;5032002;28;20273;-46
2021/01/15 09:17:57;;;;;;;13.60;10.60;;;7.40;99.90;;;;;;5033972;28;20180;-46
2021/01/15 09:20:22;;;;;;;13.37;9.60;;;7.90;99.40;;;;;;5030455;28;20184;-47
2021/01/15 09:22:48;;;;;;;12.07;9.33;;;7.90;98.30;;;;;;5034306;28;20184;-46
2021/01/15 09:25:14;;;;;;;12.40;10.50;;;8.00;98.10;;;;;;5035206;28;20176;-44
2021/01/15 09:27:40;;;;;;;13.23;10.30;;;8.40;97.70;;;;;;5033083;28;20648;-51
2021/01/15 09:30:07;;;;;;;12.17;10.17;;;9.50;95.90;;;;;;5035096;28;20271;-47
2021/01/15 09:32:32;;;;;;;11.03;9.10;;;10.50;93.90;;;;;;5033261;28;20267;-48
2021/01/15 09:34:58;;;;;;;9.83;8.07;;;11.40;92.80;;;;;;5032761;28;20263;-46
2021/01/15 09:37:23;;;;;;;9.30;8.40;;;12.60;90.50;;;;;;5034110;28;20194;-47
2021/01/15 09:39:49;;;;;;;10.37;9.00;;;14.00;89.50;;;;;;5028393;28;20283;-46
2021/01/15 09:42:14;;;;;;;9.43;8.17;;;15.70;81.20;;;;;;5029526;28;20178;-46
2021/01/15 09:44:41;;;;;;;9.00;8.10;;;17.40;74.80;;;;;;5027536;28;20176;-48
2021/01/15 09:47:07;;;;;;;10.10;9.10;;;19.20;67.10;;;;;;5027569;28;20563;-46
2021/01/15 09:49:33;;;;;;;10.33;9.23;;;19.00;62.20;;;;;;5032573;28;20212;-46
2021/01/15 09:52:00;;;;;;;10.13;9.03;;;19.00;60.00;;;;;;5032463;28;20176;-44
2021/01/15 09:54:26;;;;;;;9.70;8.70;;;18.60;59.50;;;;;;5032444;28;20655;-47
2021/01/15 09:56:51;;;;;;;10.00;8.30;;;18.30;59.20;;;;;;5028016;28;20658;-46
2021/01/15 09:59:19;;;;;;;9.37;8.37;;;18.70;58.50;;;;;;5029923;28;20211;-44
2021/01/15 10:01:47;;;;;;;9.20;8.30;;;19.00;57.70;;;;;;5029053;28;20192;-46
2021/01/15 10:04:12;;;;;;;9.40;8.43;;;18.70;58.00;;;;;;5034604;28;20672;-50
2021/01/15 10:06:39;;;;;;;9.80;8.43;;;18.80;57.00;;;;;;5033142;28;20238;-48
2021/01/15 10:09:06;;;;;;;8.70;7.80;;;18.10;57.30;;;;;;5032432;28;20225;-47
2021/01/15 10:11:34;;;;;;;9.53;7.90;;;17.60;58.10;;;;;;5034685;28;20178;-46
2021/01/15 10:14:05;;;;;;;12.70;8.83;;;18.00;59.90;;;;;;5034307;28;20645;-45
2021/01/15 10:16:30;;;;;;;8.97;8.07;;;18.90;58.10;;;;;;5034484;28;20591;-45
2021/01/15 10:18:56;;;;;;;10.03;8.37;;;19.30;56.80;;;;;;5034056;28;20744;-44
2021/01/15 10:21:23;;;;;;;10.40;9.37;;;18.80;56.40;;;;;;5031860;28;20180;-45
2021/01/15 10:23:51;;;;;;;12.23;9.00;;;17.60;55.90;;;;;;5033085;28;20234;-45
2021/01/15 10:26:23;;;;;;;9.13;8.23;;;15.90;57.80;;;;;;5031782;28;20215;-45
2021/01/15 10:28:48;;;;;;;9.73;8.73;;;14.30;60.10;;;;;;5032465;28;20260;-47
2021/01/15 10:31:14;;;;;;;12.70;9.70;;;13.00;62.20;;;;;;5023992;28;20179;-48
2021/01/15 10:33:39;;;;;;;10.77;8.40;;;12.10;64.40;;;;;;5033930;28;20191;-45
2021/01/15 10:36:08;;;;;;;11.50;10.10;;;11.40;66.20;;;;;;5029773;28;20659;-46
2021/01/15 10:38:34;;;;;;;11.63;10.37;;;10.40;68.60;;;;;;5029092;28;20212;-48
2021/01/15 10:41:00;;;;;;;10.77;9.30;;;9.80;71.20;;;;;;5028086;28;20172;-45
2021/01/15 10:43:26;;;;;;;12.00;9.60;;;9.40;73.80;;;;;;5031777;28;20176;-44
2021/01/15 10:45:54;;;;;;;10.63;8.90;;;9.20;75.70;;;;;;5030839;28;20195;-49
2021/01/15 10:48:19;;;;;;;10.77;9.60;;;9.30;76.50;;;;;;5016448;28;20283;-45
2021/01/15 10:50:45;;;;;;;11.90;9.10;;;9.30;76.80;;;;;;5015737;28;20212;-45
2021/01/15 10:53:10;;;;;;;10.23;9.13;;;9.40;78.20;;;;;;5014213;28;20188;-44
2021/01/15 10:55:36;;;;;;;13.53;10.50;;;9.70;78.00;;;;;;5019684;28;20187;-47
2021/01/15 10:58:01;;;;;;;12.80;11.27;;;9.70;77.70;;;;;;5033779;28;20318;-46
2021/01/15 11:00:27;;;;;;;12.03;10.27;;;9.20;78.80;;;;;;5034230;28;20226;-44
2021/01/15 11:02:52;;;;;;;12.63;11.03;;;8.90;80.00;;;;;;5030274;28;20215;-45
2021/01/15 11:05:18;;;;;;;13.27;11.07;;;8.50;80.90;;;;;;5020719;28;20190;-46
2021/01/15 11:07:45;;;;;;;12.57;10.93;;;8.30;82.00;;;;;;5021783;28;20569;-47
2021/01/15 11:10:12;;;;;;;14.73;10.57;;;8.20;83.40;;;;;;5026797;28;20176;-47
2021/01/15 11:12:38;;;;;;;12.07;10.57;;;8.50;84.00;;;;;;5024767;28;20243;-43
2021/01/15 11:15:05;;;;;;;11.70;10.07;;;8.50;83.90;;;;;;5031236;28;20180;-46
2021/01/15 11:17:30;;;;;;;12.57;10.57;;;8.10;84.60;;;;;;5022656;28;20183;-45
2021/01/15 11:19:56;;;;;;;14.27;10.87;;;7.80;85.40;;;;;;5024179;28;20204;-45
2021/01/15 11:22:21;;;;;;;13.33;11.17;;;7.60;85.50;;;;;;5032854;28;20646;-45
2021/01/15 11:24:47;;;;;;;13.60;10.87;;;7.30;86.40;;;;;;5032243;28;20203;-49
2021/01/15 11:27:13;;;;;;;12.70;10.73;;;7.20;87.90;;;;;;5014947;28;20203;-46
2021/01/15 11:29:38;;;;;;;12.60;11.00;;;7.10;88.70;;;;;;5020163;28;20212;-49
2021/01/15 11:32:04;;;;;;;12.90;11.10;;;7.00;89.10;;;;;;5028263;28;20180;-48
2021/01/15 11:34:30;;;;;;;11.77;10.17;;;6.90;90.10;;;;;;5030118;28;20204;-44
2021/01/15 11:36:55;;;;;;;12.13;10.43;;;7.70;90.70;;;;;;5016244;28;20191;-46
2021/01/15 11:39:22;;;;;;;11.30;10.13;;;8.60;88.20;;;;;;5028451;28;20294;-46
2021/01/15 11:41:52;;;;;;;11.43;10.23;;;9.10;86.10;;;;;;5030729;28;20726;-46
2021/01/15 11:44:18;;;;;;;12.03;10.70;;;8.90;85.70;;;;;;5016273;28;20237;-50
2021/01/15 11:46:43;;;;;;;11.63;10.37;;;8.20;86.60;;;;;;5033620;28;20551;-45
2021/01/15 11:49:09;;;;;;;12.17;10.77;;;7.80;88.30;;;;;;5015501;28;20200;-47
2021/01/15 11:51:34;;;;;;;14.00;11.00;;;7.10;89.70;;;;;;5033459;28;20754;-45
2021/01/15 11:54:00;;;;;;;13.27;10.70;;;6.60;90.70;;;;;;5033298;28;20192;-46
2021/01/15 11:56:25;;;;;;;12.77;11.20;;;6.20;91.50;;;;;;5032918;28;20697;-43
2021/01/15 11:58:51;;;;;;;13.23;10.83;;;5.80;92.40;;;;;;5033650;28;20199;-44
2021/01/15 12:01:17;;;;;;;13.30;10.70;;;5.50;93.00;;;;;;5029678;28;20185;-48
2021/01/15 12:03:43;;;;;;;14.63;10.67;;;5.40;93.50;;;;;;5018725;28;20195;-46
2021/01/15 12:06:11;;;;;;;13.57;11.10;;;5.30;93.90;;;;;;5012985;28;20220;-47
2021/01/15 12:08:36;;;;;;;14.87;11.10;;;5.10;94.30;;;;;;5020729;28;20210;-47
2021/01/15 12:11:03;;;;;;;14.33;11.50;;;4.70;95.10;;;;;;5031652;28;20172;-48
2021/01/15 12:13:29;;;;;;;14.33;11.17;;;4.40;96.10;;;;;;5026004;28;20180;-46
2021/01/15 12:15:55;;;;;;;12.60;10.23;;;4.00;97.10;;;;;;5016524;28;20683;-46
2021/01/15 12:18:21;;;;;;;13.70;10.77;;;3.80;98.50;;;;;;5032712;28;20548;-48
2021/01/15 12:20:47;;;;;;;13.87;11.33;;;3.70;98.60;;;;;;5031029;28;20286;-50
2021/01/15 12:23:15;;;;;;;14.47;11.37;;;3.50;99.90;;;;;;5019782;28;20270;-50
2021/01/15 12:25:41;;;;;;;12.73;10.73;;;3.30;99.90;;;;;;5023776;28;20223;-47
2021/01/15 12:28:11;;;;;;;14.73;11.80;;;3.20;99.90;;;;;;5010061;28;20188;-46
2021/01/15 12:30:37;;;;;;;13.37;11.10;;;3.20;99.90;;;;;;5027543;28;20171;-53
2021/01/15 12:33:14;;;;;;;12.70;10.77;;;3.20;99.90;;;;;;5002635;28;20771;-46
2021/01/15 12:35:40;;;;;;;14.90;10.80;;;3.10;99.90;;;;;;5022179;28;20840;-46
2021/01/15 12:38:14;;;;;;;13.33;10.40;;;3.00;99.90;;;;;;5014266;28;20536;-46
2021/01/15 12:40:40;;;;;;;11.77;9.83;;;2.80;99.90;;;;;;5031138;28;20175;-46
2021/01/15 12:43:10;;;;;;;12.30;10.17;;;2.60;99.90;;;;;;5030183;28;20176;-49
2021/01/15 12:45:37;;;;;;;11.43;9.80;;;2.50;99.90;;;;;;5032534;28;20215;-49